createdAt,value
2019-03-13T00:00:38.945Z,26.8
2019-03-13T00:01:31.970Z,26.9
2019-03-13T00:02:17.626Z,27.1
2019-03-13T00:03:07.238Z,27.4
2019-03-13T00:03:58.056Z,27.6
2019-03-13T00:05:38.463Z,28
2019-03-13T00:06:28.700Z,28.2
2019-03-13T00:07:18.737Z,28.4
2019-03-13T00:08:09.177Z,28.6
2019-03-13T00:08:58.850Z,28.7
2019-03-13T00:09:49.485Z,28.9
2019-03-13T00:10:41.804Z,29
2019-03-13T00:11:29.116Z,29.1
2019-03-13T00:12:18.892Z,29.3
2019-03-13T00:13:09.722Z,29.4
2019-03-13T00:13:58.396Z,29.5
2019-03-13T00:14:48.494Z,29.6
2019-03-13T00:15:39.462Z,29.6
2019-03-13T00:16:29.124Z,29.4
2019-03-13T00:17:19.212Z,29.3
2019-03-13T00:18:08.992Z,29.2
2019-03-13T00:18:59.859Z,29.1
2019-03-13T00:19:49.394Z,28.9
2019-03-13T00:20:39.196Z,28.8
2019-03-13T00:21:29.319Z,28.7
2019-03-13T00:22:19.657Z,28.5
2019-03-13T00:23:10.322Z,28.4
2019-03-13T00:23:59.919Z,28.3
2019-03-13T00:24:50.167Z,27.5
2019-03-13T00:25:39.356Z,27.1
2019-03-13T00:26:29.614Z,26.8
2019-03-13T00:27:20.259Z,26.6
2019-03-13T00:28:10.063Z,26.4
2019-03-13T00:29:00.288Z,26.3
2019-03-13T00:29:49.783Z,26.2
2019-03-13T00:30:40.136Z,26.1
2019-03-13T00:31:29.456Z,25.9
2019-03-13T00:32:20.298Z,25.9
2019-03-13T00:33:10.744Z,26.1
2019-03-13T00:34:01.196Z,26.4
2019-03-13T00:34:50.451Z,26.8
2019-03-13T00:35:40.514Z,27.2
2019-03-13T00:36:30.559Z,27.1
2019-03-13T00:37:20.358Z,27.1
2019-03-13T00:38:10.760Z,27.3
2019-03-13T00:39:00.715Z,27.4
2019-03-13T00:39:50.550Z,27.6
2019-03-13T00:41:30.605Z,28
2019-03-13T00:42:20.980Z,28.2
2019-03-13T00:43:11.716Z,28.3
2019-03-13T00:44:01.157Z,28.5
2019-03-13T00:44:51.205Z,28.6
2019-03-13T00:45:40.758Z,28.8
2019-03-13T00:46:31.261Z,28.9
2019-03-13T00:47:21.610Z,29
2019-03-13T00:48:10.966Z,29.1
2019-03-13T00:49:01.795Z,29.3
2019-03-13T00:49:52.312Z,29.4
2019-03-13T00:50:41.862Z,29.4
2019-03-13T00:51:31.738Z,29.6
2019-03-13T00:52:22.085Z,29.6
2019-03-13T00:53:11.842Z,29.5
2019-03-13T00:54:01.294Z,29.4
2019-03-13T00:54:51.570Z,29.3
2019-03-13T00:55:41.760Z,29.1
2019-03-13T00:56:32.535Z,29
2019-03-13T00:57:22.587Z,28.9
2019-03-13T00:58:12.415Z,28.8
2019-03-13T00:59:03.002Z,28.6
2019-03-13T00:59:51.657Z,28.5
2019-03-13T01:00:42.912Z,28.4
2019-03-13T01:01:32.409Z,28.3
2019-03-13T01:02:23.508Z,27.4
2019-03-13T01:03:12.492Z,27.1
2019-03-13T01:04:02.814Z,26.9
2019-03-13T01:04:52.608Z,26.6
2019-03-13T01:05:42.932Z,26.5
2019-03-13T01:06:33.268Z,26.4
2019-03-13T01:07:22.767Z,26.3
2019-03-13T01:08:13.647Z,26.1
2019-03-13T01:09:03.632Z,26
2019-03-13T01:09:51.686Z,25.9
2019-03-13T01:10:42.914Z,26.1
2019-03-13T01:11:35.337Z,26.4
2019-03-13T01:12:22.649Z,26.7
2019-03-13T01:13:12.757Z,27.2
2019-03-13T01:14:03.816Z,27.1
2019-03-13T01:14:52.437Z,27.1
2019-03-13T01:15:43.437Z,27.3
2019-03-13T01:16:33.334Z,27.4
2019-03-13T01:17:23.641Z,27.6
2019-03-13T01:18:13.281Z,27.8
2019-03-13T01:19:03.148Z,27.9
2019-03-13T01:19:53.434Z,28.1
2019-03-13T01:20:43.506Z,28.3
2019-03-13T01:21:34.104Z,28.4
2019-03-13T01:22:24.201Z,28.5
2019-03-13T01:23:13.788Z,28.6
2019-03-13T01:24:04.563Z,28.8
2019-03-13T01:24:54.318Z,28.9
2019-03-13T01:25:43.073Z,28.9
2019-03-13T01:26:34.545Z,29.1
2019-03-13T01:27:24.272Z,29.1
2019-03-13T01:28:14.357Z,29.3
2019-03-13T01:29:05.135Z,29.4
2019-03-13T01:29:54.955Z,29.4
2019-03-13T01:30:44.485Z,29.5
2019-03-13T01:31:34.211Z,29.6
2019-03-13T01:32:24.613Z,29.6
2019-03-13T01:33:14.871Z,29.5
2019-03-13T01:34:05.035Z,29.4
2019-03-13T01:34:53.873Z,29.3
2019-03-13T01:35:45.163Z,29.2
2019-03-13T01:36:35.096Z,29
2019-03-13T01:37:25.518Z,28.9
2019-03-13T01:38:14.966Z,28.8
2019-03-13T01:39:05.582Z,28.6
2019-03-13T01:39:55.097Z,28.5
2019-03-13T01:40:45.685Z,28.4
2019-03-13T01:41:36.339Z,28.3
2019-03-13T01:42:26.182Z,27.8
2019-03-13T01:43:15.902Z,27.3
2019-03-13T01:44:06.899Z,27
2019-03-13T01:44:55.993Z,26.8
2019-03-13T01:45:46.062Z,26.6
2019-03-13T01:46:36.109Z,26.5
2019-03-13T01:47:25.609Z,26.4
2019-03-13T01:48:16.599Z,26.3
2019-03-13T01:49:05.840Z,26.1
2019-03-13T01:49:55.822Z,26
2019-03-13T01:50:44.757Z,25.9
2019-03-13T01:51:36.487Z,26.1
2019-03-13T01:52:25.791Z,26.4
2019-03-13T01:53:15.859Z,26.7
2019-03-13T01:54:06.562Z,27.2
2019-03-13T01:54:55.872Z,27.2
2019-03-13T01:55:46.668Z,27.2
2019-03-13T01:56:36.896Z,27.3
2019-03-13T01:57:27.196Z,27.4
2019-03-13T01:58:16.484Z,27.6
2019-03-13T01:59:07.681Z,28.1
2019-03-13T01:59:56.529Z,28.2
2019-03-13T02:00:47.126Z,27.8
2019-03-13T02:01:36.961Z,27.1
2019-03-13T02:02:26.402Z,26.4
2019-03-13T02:03:16.096Z,25.6
2019-03-13T02:04:07.413Z,24.6
2019-03-13T02:04:56.645Z,23.8
2019-03-13T02:05:46.803Z,23.6
2019-03-13T02:06:36.593Z,23.8
2019-03-13T02:07:27.713Z,24.5
2019-03-13T02:08:17.696Z,25.4
2019-03-13T02:09:07.523Z,26.2
2019-03-13T02:09:57.023Z,26.7
2019-03-13T02:10:47.911Z,26.8
2019-03-13T02:11:37.605Z,26.9
2019-03-13T02:12:27.148Z,27.1
2019-03-13T02:13:18.323Z,27.2
2019-03-13T02:14:07.337Z,27.4
2019-03-13T02:14:58.076Z,27.7
2019-03-13T02:15:46.605Z,27.9
2019-03-13T02:16:37.997Z,28.1
2019-03-13T02:17:28.327Z,28.3
2019-03-13T02:18:18.258Z,28.4
2019-03-13T02:19:06.517Z,28.6
2019-03-13T02:19:58.557Z,28.8
2019-03-13T02:20:48.358Z,28.9
2019-03-13T02:21:38.056Z,29
2019-03-13T02:22:27.580Z,29.1
2019-03-13T02:23:18.471Z,29.3
2019-03-13T02:24:08.320Z,29.4
2019-03-13T02:25:02.936Z,29.5
2019-03-13T02:25:48.448Z,29.6
2019-03-13T02:26:38.422Z,29.6
2019-03-13T02:27:28.774Z,29.5
2019-03-13T02:28:18.575Z,29.3
2019-03-13T02:29:08.887Z,29.2
2019-03-13T02:29:58.945Z,29.1
2019-03-13T02:30:48.808Z,28.9
2019-03-13T02:31:39.657Z,28.8
2019-03-13T02:32:29.504Z,28.7
2019-03-13T02:33:19.582Z,28.6
2019-03-13T02:34:09.478Z,28.4
2019-03-13T02:34:59.391Z,28.3
2019-03-13T02:35:50.268Z,27.6
2019-03-13T02:36:39.269Z,27.2
2019-03-13T02:37:30.591Z,26.9
2019-03-13T02:38:19.818Z,26.8
2019-03-13T02:39:09.688Z,26.6
2019-03-13T02:39:58.978Z,26.5
2019-03-13T02:40:49.856Z,26.4
2019-03-13T02:41:39.915Z,26.3
2019-03-13T02:42:28.615Z,26.1
2019-03-13T02:43:18.876Z,26
2019-03-13T02:44:09.919Z,25.9
2019-03-13T02:44:59.769Z,26.3
2019-03-13T02:45:49.439Z,26.5
2019-03-13T02:46:40.271Z,26.9
2019-03-13T02:47:30.109Z,27.3
2019-03-13T02:48:19.201Z,27.2
2019-03-13T02:49:09.448Z,27.3
2019-03-13T02:49:59.703Z,27.4
2019-03-13T02:50:50.539Z,27.6
2019-03-13T02:51:40.452Z,27.8
2019-03-13T02:52:31.360Z,27.9
2019-03-13T02:53:20.721Z,28.1
2019-03-13T02:54:10.526Z,28.3
2019-03-13T02:55:00.973Z,28.4
2019-03-13T02:55:50.079Z,28.6
2019-03-13T02:56:39.834Z,28.7
2019-03-13T02:57:31.726Z,28.9
2019-03-13T02:58:20.621Z,29
2019-03-13T02:59:11.657Z,29.1
2019-03-13T03:00:01.929Z,29.2
2019-03-13T03:00:51.880Z,29.3
2019-03-13T03:01:41.648Z,29.4
2019-03-13T03:02:30.966Z,29.6
2019-03-13T03:03:22.003Z,29.6
2019-03-13T03:04:12.007Z,29.6
2019-03-13T03:07:43.921Z,29
2019-03-13T03:08:33.371Z,28.9
2019-03-13T03:09:23.152Z,28.7
2019-03-13T03:10:14.063Z,28.6
2019-03-13T03:11:02.979Z,28.4
2019-03-13T03:11:53.487Z,28.3
2019-03-13T03:12:44.159Z,28
2019-03-13T03:13:33.777Z,27.4
2019-03-13T03:14:24.046Z,27.1
2019-03-13T03:15:13.690Z,26.9
2019-03-13T03:16:04.120Z,26.7
2019-03-13T03:16:53.864Z,26.6
2019-03-13T03:17:44.510Z,26.4
2019-03-13T03:18:33.500Z,26.3
2019-03-13T03:19:23.903Z,26.2
2019-03-13T03:20:13.485Z,26.1
2019-03-13T03:21:04.371Z,25.9
2019-03-13T03:21:53.673Z,26.1
2019-03-13T03:22:43.918Z,26.4
2019-03-13T03:23:34.260Z,26.6
2019-03-13T03:24:24.476Z,27.1
2019-03-13T03:25:15.017Z,27.3
2019-03-13T03:26:04.526Z,27.3
2019-03-13T03:26:54.655Z,27.3
2019-03-13T03:27:43.627Z,27.4
2019-03-13T03:28:34.566Z,27.6
2019-03-13T03:29:24.282Z,27.8
2019-03-13T03:30:15.447Z,27.9
2019-03-13T03:31:05.480Z,28.1
2019-03-13T03:31:54.974Z,28.3
2019-03-13T03:32:45.885Z,28.4
2019-03-13T03:33:35.570Z,28.6
2019-03-13T03:34:25.880Z,28.6
2019-03-13T03:35:14.997Z,28.8
2019-03-13T03:36:05.462Z,28.9
2019-03-13T03:36:54.724Z,28.9
2019-03-13T03:37:45.247Z,29.1
2019-03-13T03:38:35.661Z,29.1
2019-03-13T03:39:25.080Z,29.3
2019-03-13T03:40:15.521Z,29.3
2019-03-13T03:41:04.994Z,29.4
2019-03-13T03:41:56.113Z,29.5
2019-03-13T03:42:45.049Z,29.6
2019-03-13T03:43:49.940Z,29.6
2019-03-13T03:44:25.560Z,29.5
2019-03-13T03:45:15.861Z,29.4
2019-03-13T03:46:06.501Z,29.3
2019-03-13T03:46:55.570Z,29.1
2019-03-13T03:47:45.749Z,29
2019-03-13T03:48:36.261Z,28.9
2019-03-13T03:49:25.618Z,28.7
2019-03-13T03:50:16.505Z,28.6
2019-03-13T03:51:06.939Z,28.4
2019-03-13T03:51:56.245Z,28.3
2019-03-13T03:52:46.672Z,28.2
2019-03-13T03:53:36.442Z,27.6
2019-03-13T03:54:26.812Z,27.3
2019-03-13T03:55:16.708Z,27
2019-03-13T03:56:06.749Z,26.8
2019-03-13T03:56:56.966Z,26.6
2019-03-13T03:57:47.314Z,26.5
2019-03-13T03:58:39.251Z,26.4
2019-03-13T03:59:26.917Z,26.3
2019-03-13T04:00:16.231Z,26.1
2019-03-13T04:01:06.738Z,26.1
2019-03-13T04:01:56.515Z,25.9
2019-03-13T04:02:46.883Z,26.3
2019-03-13T04:03:36.477Z,26.4
2019-03-13T04:04:27.093Z,26.8
2019-03-13T04:05:17.625Z,27.3
2019-03-13T04:06:07.274Z,27.2
2019-03-13T04:06:57.094Z,27.3
2019-03-13T04:07:47.704Z,27.3
2019-03-13T04:08:42.270Z,27.5
2019-03-13T04:09:27.961Z,27.7
2019-03-13T04:10:17.483Z,28.2
2019-03-13T04:11:08.407Z,28.3
2019-03-13T04:11:58.054Z,27.7
2019-03-13T04:12:48.337Z,27
2019-03-13T04:13:37.672Z,26.3
2019-03-13T04:14:28.537Z,25.5
2019-03-13T04:15:18.179Z,24.5
2019-03-13T04:16:08.696Z,23.8
2019-03-13T04:16:58.336Z,23.7
2019-03-13T04:17:48.137Z,24.1
2019-03-13T04:18:37.427Z,24.9
2019-03-13T04:19:28.079Z,25.8
2019-03-13T04:20:18.249Z,26.6
2019-03-13T04:21:08.946Z,26.8
2019-03-13T04:21:58.221Z,26.9
2019-03-13T04:22:48.572Z,27
2019-03-13T04:23:38.945Z,27.2
2019-03-13T04:24:28.503Z,27.4
2019-03-13T04:25:34.153Z,27.7
2019-03-13T04:26:12.296Z,28
2019-03-13T04:26:58.939Z,28.1
2019-03-13T04:27:49.156Z,28.3
2019-03-13T04:28:39.222Z,28.5
2019-03-13T04:29:28.791Z,28.7
2019-03-13T04:30:19.827Z,28.8
2019-03-13T04:31:09.498Z,29
2019-03-13T04:31:59.186Z,29.1
2019-03-13T04:32:49.101Z,29.3
2019-03-13T04:33:39.207Z,29.4
2019-03-13T04:34:29.108Z,29.5
2019-03-13T04:35:19.937Z,29.6
2019-03-13T04:36:09.497Z,29.6
2019-03-13T04:36:59.231Z,29.4
2019-03-13T04:37:49.845Z,29.3
2019-03-13T04:38:39.874Z,29.2
2019-03-13T04:39:30.179Z,29.1
2019-03-13T04:40:19.725Z,28.9
2019-03-13T04:41:09.498Z,28.8
2019-03-13T04:41:59.913Z,28.7
2019-03-13T04:42:49.084Z,28.5
2019-03-13T04:43:40.144Z,28.4
2019-03-13T04:44:29.089Z,28.3
2019-03-13T04:45:19.787Z,27.9
2019-03-13T04:46:09.626Z,27.3
2019-03-13T04:46:59.860Z,27
2019-03-13T04:47:49.333Z,26.8
2019-03-13T04:48:40.457Z,26.6
2019-03-13T04:49:30.573Z,26.4
2019-03-13T04:50:20.107Z,26.3
2019-03-13T04:51:10.103Z,26.2
2019-03-13T04:52:00.524Z,26.1
2019-03-13T04:52:49.062Z,25.9
2019-03-13T04:53:40.096Z,25.9
2019-03-13T04:54:30.189Z,26.3
2019-03-13T04:55:19.447Z,26.5
2019-03-13T04:56:10.111Z,27
2019-03-13T04:56:59.250Z,27.1
2019-03-13T04:57:49.896Z,27.1
2019-03-13T04:58:40.146Z,27.3
2019-03-13T04:59:30.231Z,27.4
2019-03-13T05:00:21.489Z,27.6
2019-03-13T05:02:00.107Z,28.1
2019-03-13T05:02:50.692Z,28.3
2019-03-13T05:03:41.347Z,28.4
2019-03-13T05:04:31.337Z,28.6
2019-03-13T05:05:21.469Z,28.8
2019-03-13T05:06:11.726Z,28.9
2019-03-13T05:07:00.670Z,29
2019-03-13T05:07:52.094Z,29.1
2019-03-13T05:08:54.754Z,29.3
2019-03-13T05:09:32.053Z,29.4
2019-03-13T05:10:21.483Z,29.6
2019-03-13T05:11:11.543Z,29.6
2019-03-13T05:12:02.457Z,29.6
2019-03-13T05:12:52.586Z,29.4
2019-03-13T05:13:42.569Z,29.3
2019-03-13T05:14:35.419Z,29.2
2019-03-13T05:15:22.155Z,29.1
2019-03-13T05:16:11.425Z,28.9
2019-03-13T05:17:02.206Z,28.8
2019-03-13T05:17:52.259Z,28.6
2019-03-13T05:18:42.399Z,28.5
2019-03-13T05:19:33.004Z,28.4
2019-03-13T05:20:23.429Z,28.3
2019-03-13T05:21:12.274Z,27.5
2019-03-13T05:22:02.352Z,27.1
2019-03-13T05:22:52.621Z,26.9
2019-03-13T05:23:42.964Z,26.7
2019-03-13T05:24:32.447Z,26.6
2019-03-13T05:25:26.376Z,26.4
2019-03-13T05:26:12.714Z,26.3
2019-03-13T05:27:02.879Z,26.2
2019-03-13T05:27:52.153Z,26
2019-03-13T05:28:42.096Z,25.9
2019-03-13T05:29:33.129Z,26.1
2019-03-13T05:30:23.444Z,26.4
2019-03-13T05:31:13.169Z,26.7
2019-03-13T05:32:02.731Z,27.3
2019-03-13T05:32:53.332Z,27.1
2019-03-13T05:33:44.117Z,27.2
2019-03-13T05:34:33.602Z,27.4
2019-03-13T05:35:23.892Z,27.5
2019-03-13T05:36:17.811Z,27.7
2019-03-13T05:37:04.346Z,28
2019-03-13T05:37:53.015Z,28.2
2019-03-13T05:38:44.113Z,28.4
2019-03-13T05:39:34.631Z,28.5
2019-03-13T05:40:24.208Z,28.7
2019-03-13T05:41:14.314Z,28.8
2019-03-13T05:42:04.086Z,29
2019-03-13T05:42:53.108Z,29.1
2019-03-13T05:43:43.619Z,29.3
2019-03-13T05:44:33.906Z,29.4
2019-03-13T05:45:24.245Z,29.5
2019-03-13T05:46:13.871Z,29.6
2019-03-13T05:47:04.605Z,29.6
2019-03-13T05:47:54.965Z,29.4
2019-03-13T05:48:44.817Z,29.3
2019-03-13T05:49:34.775Z,29.2
2019-03-13T05:50:25.198Z,29.1
2019-03-13T05:51:15.027Z,28.9
2019-03-13T05:52:04.733Z,28.8
2019-03-13T05:52:54.463Z,28.7
2019-03-13T05:53:45.167Z,28.6
2019-03-13T05:54:34.879Z,28.4
2019-03-13T05:55:25.101Z,28.3
2019-03-13T05:56:14.712Z,27.8
2019-03-13T05:57:05.705Z,27.3
2019-03-13T05:57:54.685Z,27.1
2019-03-13T05:58:44.905Z,26.9
2019-03-13T05:59:35.495Z,26.7
2019-03-13T06:00:25.020Z,26.6
2019-03-13T06:01:15.930Z,26.4
2019-03-13T06:02:05.532Z,26.3
2019-03-13T06:02:57.172Z,26.2
2019-03-13T06:05:42.382Z,26.2
2019-03-13T06:06:32.425Z,26.5
2019-03-13T06:07:22.511Z,26.9
2019-03-13T06:08:12.814Z,27.5
2019-03-13T06:09:02.497Z,27.3
2019-03-13T06:09:52.967Z,27.4
2019-03-13T06:10:42.385Z,27.5
2019-03-13T06:11:32.469Z,27.6
2019-03-13T06:13:12.617Z,28.1
2019-03-13T06:14:03.584Z,28.3
2019-03-13T06:14:53.289Z,28.4
2019-03-13T06:15:43.333Z,28.6
2019-03-13T06:16:33.434Z,29.1
2019-03-13T06:17:23.449Z,28.8
2019-03-13T06:18:17.151Z,28.1
2019-03-13T06:19:03.255Z,27.3
2019-03-13T06:19:53.536Z,26.6
2019-03-13T06:20:43.756Z,25.6
2019-03-13T06:21:33.961Z,24.7
2019-03-13T06:22:23.225Z,24.4
2019-03-13T06:23:13.789Z,24.8
2019-03-13T06:24:04.163Z,25.6
2019-03-13T06:24:53.078Z,26.4
2019-03-13T06:25:44.344Z,26.9
2019-03-13T06:26:33.205Z,27.1
2019-03-13T06:27:23.260Z,27.3
2019-03-13T06:28:13.927Z,27.4
2019-03-13T06:29:04.790Z,27.6
2019-03-13T06:29:54.546Z,27.9
2019-03-13T06:30:44.107Z,28.2
2019-03-13T06:31:34.483Z,28.4
2019-03-13T06:32:23.450Z,28.6
2019-03-13T06:33:13.530Z,28.8
2019-03-13T06:34:04.261Z,29
2019-03-13T06:34:54.332Z,29.2
2019-03-13T06:35:44.941Z,29.4
2019-03-13T06:36:35.030Z,29.5
2019-03-13T06:37:25.387Z,29.6
2019-03-13T06:38:14.851Z,29.5
2019-03-13T06:39:04.907Z,29.4
2019-03-13T06:39:55.071Z,29.3
2019-03-13T06:40:44.275Z,29.1
2019-03-13T06:41:36.021Z,29
2019-03-13T06:42:24.912Z,28.9
2019-03-13T06:43:14.407Z,28.8
2019-03-13T06:44:05.623Z,28.6
2019-03-13T06:44:55.412Z,28.5
2019-03-13T06:45:45.935Z,28.4
2019-03-13T06:46:34.897Z,28.3
2019-03-13T06:47:28.375Z,27.3
2019-03-13T06:48:15.084Z,26.8
2019-03-13T06:49:06.448Z,26.4
2019-03-13T06:49:55.952Z,26.2
2019-03-13T06:50:46.337Z,26
2019-03-13T06:51:36.422Z,25.9
2019-03-13T06:52:26.182Z,25.8
2019-03-13T06:53:16.117Z,25.7
2019-03-13T06:54:06.042Z,25.9
2019-03-13T06:54:55.483Z,26.3
2019-03-13T06:55:46.172Z,26.3
2019-03-13T06:56:36.454Z,26.6
2019-03-13T06:57:27.035Z,26.9
2019-03-13T06:58:14.861Z,27.1
2019-03-13T06:59:06.321Z,27.4
2019-03-13T06:59:56.096Z,27.7
2019-03-13T07:00:45.886Z,28
2019-03-13T07:01:35.961Z,28.3
2019-03-13T07:02:26.259Z,28.5
2019-03-13T07:03:16.937Z,28.7
2019-03-13T07:05:41.986Z,29.3
2019-03-13T07:06:31.443Z,29.4
2019-03-13T07:07:21.881Z,29.5
2019-03-13T07:08:12.391Z,29.4
2019-03-13T07:09:02.548Z,29.3
2019-03-13T07:09:53.944Z,29.2
2019-03-13T07:10:41.858Z,29.1
2019-03-13T07:11:33.467Z,28.9
2019-03-13T07:12:22.819Z,28.8
2019-03-13T07:13:12.798Z,28.7
2019-03-13T07:14:03.091Z,28.6
2019-03-13T07:14:53.776Z,28.4
2019-03-13T07:15:45.250Z,28.3
2019-03-13T07:16:33.531Z,27.3
2019-03-13T07:17:23.586Z,26.8
2019-03-13T07:18:13.100Z,26.5
2019-03-13T07:19:03.693Z,26.3
2019-03-13T07:19:53.480Z,26.1
2019-03-13T07:20:43.660Z,25.9
2019-03-13T07:21:33.655Z,25.8
2019-03-13T07:22:24.348Z,25.6
2019-03-13T07:23:13.468Z,25.5
2019-03-13T07:24:03.395Z,25.4
2019-03-13T07:24:52.142Z,25.3
2019-03-13T07:25:43.618Z,25.3
2019-03-13T07:26:34.107Z,25.2
2019-03-13T07:27:24.292Z,25.3
2019-03-13T07:28:14.083Z,25.3
2019-03-13T07:29:18.560Z,25.2
2019-03-13T07:29:53.465Z,25.1
2019-03-13T07:30:43.746Z,25
2019-03-13T07:31:34.447Z,24.9
2019-03-13T07:32:23.425Z,24.9
2019-03-13T07:33:14.195Z,24.8
2019-03-13T07:34:03.729Z,24.6
2019-03-13T07:34:54.262Z,24.6
2019-03-13T07:35:44.079Z,24.4
2019-03-13T07:36:34.419Z,24.3
2019-03-13T07:37:25.292Z,24.6
2019-03-13T07:38:17.653Z,24.6
2019-03-13T07:39:05.123Z,24.6
2019-03-13T07:39:54.146Z,24.5
2019-03-13T07:40:45.291Z,24.4
2019-03-13T07:41:38.565Z,24.3
2019-03-13T07:42:25.439Z,24.3
2019-03-13T07:43:15.162Z,24.2
2019-03-13T07:44:05.305Z,24.1
2019-03-13T07:44:54.541Z,23.9
2019-03-13T07:45:45.881Z,23.9
2019-03-13T07:46:35.391Z,23.8
2019-03-13T07:47:25.251Z,23.8
2019-03-13T07:48:15.241Z,24.1
2019-03-13T07:49:05.018Z,24.1
2019-03-13T07:49:56.161Z,24
2019-03-13T07:50:45.536Z,24
2019-03-13T07:51:34.906Z,23.9
2019-03-13T07:52:26.364Z,23.8
2019-03-13T07:53:15.986Z,23.7
2019-03-13T07:54:05.907Z,23.6
2019-03-13T07:54:56.329Z,23.6
2019-03-13T07:55:45.771Z,23.4
2019-03-13T07:56:35.858Z,23.3
2019-03-13T07:57:26.177Z,23.3
2019-03-13T07:58:16.596Z,23.2
2019-03-13T07:59:06.861Z,23.1
2019-03-13T07:59:56.663Z,23
2019-03-13T08:00:45.590Z,23.3
2019-03-13T08:01:36.783Z,23.5
2019-03-13T08:02:25.550Z,23.9
2019-03-13T08:03:17.145Z,24.5
2019-03-13T08:04:10.695Z,24.9
2019-03-13T08:04:56.790Z,25.4
2019-03-13T08:05:46.777Z,25.7
2019-03-13T08:06:36.095Z,26
2019-03-13T08:07:26.918Z,26.3
2019-03-13T08:08:16.678Z,26.6
2019-03-13T08:09:06.420Z,27
2019-03-13T08:09:56.807Z,27.3
2019-03-13T08:10:47.220Z,27.4
2019-03-13T08:11:37.485Z,27.4
2019-03-13T08:12:26.710Z,27.3
2019-03-13T08:13:17.630Z,27.3
2019-03-13T08:14:07.222Z,27.1
2019-03-13T08:14:56.872Z,27
2019-03-13T08:15:48.062Z,26.9
2019-03-13T08:16:36.997Z,26.8
2019-03-13T08:17:27.067Z,26.7
2019-03-13T08:18:17.770Z,26.6
2019-03-13T08:19:07.789Z,26.4
2019-03-13T08:19:57.772Z,26.3
2019-03-13T08:20:47.864Z,26.2
2019-03-13T08:21:39.059Z,26.1
2019-03-13T08:22:27.975Z,26
2019-03-13T08:23:18.007Z,25.9
2019-03-13T08:24:08.717Z,25.8
2019-03-13T08:24:57.364Z,25.7
2019-03-13T08:25:49.014Z,25.6
2019-03-13T08:26:38.121Z,25.5
2019-03-13T08:27:28.669Z,25.4
2019-03-13T08:28:17.838Z,25.3
2019-03-13T08:29:08.716Z,25.3
2019-03-13T08:29:58.279Z,25.1
2019-03-13T08:30:48.729Z,25.1
2019-03-13T08:31:38.903Z,24.9
2019-03-13T08:32:28.409Z,24.9
2019-03-13T08:33:18.570Z,24.8
2019-03-13T08:34:08.579Z,24.7
2019-03-13T08:34:58.828Z,24.6
2019-03-13T08:35:48.745Z,24.5
2019-03-13T08:36:42.167Z,24.4
2019-03-13T08:37:29.411Z,24.3
2019-03-13T08:38:18.574Z,24.3
2019-03-13T08:39:08.091Z,24.1
2019-03-13T08:39:58.634Z,24.1
2019-03-13T08:40:48.443Z,23.9
2019-03-13T08:41:39.073Z,24.1
2019-03-13T08:42:29.461Z,24.3
2019-03-13T08:43:19.470Z,24.9
2019-03-13T08:44:09.864Z,25.1
2019-03-13T08:44:59.305Z,25.4
2019-03-13T08:45:50.160Z,25.7
2019-03-13T08:46:39.218Z,26
2019-03-13T08:47:29.290Z,26.3
2019-03-13T08:48:20.050Z,26.6
2019-03-13T08:49:09.468Z,26.9
2019-03-13T08:50:00.558Z,27.2
2019-03-13T08:50:50.089Z,27.4
2019-03-13T08:51:40.785Z,27.4
2019-03-13T08:52:30.777Z,27.3
2019-03-13T08:53:19.613Z,27.3
2019-03-13T08:54:10.607Z,27.1
2019-03-13T08:55:00.776Z,27.1
2019-03-13T08:55:50.302Z,26.9
2019-03-13T08:56:40.189Z,26.8
2019-03-13T08:57:30.540Z,26.7
2019-03-13T08:58:19.772Z,26.6
2019-03-13T08:59:10.608Z,26.4
2019-03-13T08:59:59.297Z,26.3
2019-03-13T09:00:50.243Z,26.3
2019-03-13T09:01:41.292Z,26.1
2019-03-13T09:02:31.140Z,26.1
2019-03-13T09:03:20.599Z,25.9
2019-03-13T09:04:11.857Z,25.8
2019-03-13T09:04:59.895Z,25.8
2019-03-13T09:05:49.270Z,25.6
2019-03-13T09:06:40.545Z,25.5
2019-03-13T09:07:30.564Z,25.4
2019-03-13T09:08:21.794Z,25.4
2019-03-13T09:09:10.849Z,25.3
2019-03-13T09:10:01.872Z,25.2
2019-03-13T09:10:51.676Z,25.1
2019-03-13T09:11:41.514Z,24.9
2019-03-13T09:12:32.059Z,24.9
2019-03-13T09:13:21.316Z,24.8
2019-03-13T09:14:11.646Z,24.7
2019-03-13T09:15:00.677Z,24.6
2019-03-13T09:15:51.729Z,24.5
2019-03-13T09:16:40.557Z,24.4
2019-03-13T09:17:31.456Z,24.3
2019-03-13T09:18:21.511Z,24.3
2019-03-13T09:19:11.985Z,24.1
2019-03-13T09:20:02.323Z,24.1
2019-03-13T09:20:51.798Z,24
2019-03-13T09:21:42.380Z,23.9
2019-03-13T09:22:32.843Z,24.3
2019-03-13T09:23:23.145Z,24.8
2019-03-13T09:24:12.121Z,25.1
2019-03-13T09:25:17.074Z,25.3
2019-03-13T09:25:51.160Z,25.7
2019-03-13T09:26:42.793Z,25.9
2019-03-13T09:27:31.536Z,26.2
2019-03-13T09:28:22.627Z,26.5
2019-03-13T09:29:12.598Z,26.8
2019-03-13T09:30:02.823Z,27.1
2019-03-13T09:30:52.953Z,27.4
2019-03-13T09:31:42.966Z,27.4
2019-03-13T09:32:32.978Z,27.3
2019-03-13T09:33:23.300Z,27.3
2019-03-13T09:34:11.758Z,27.1
2019-03-13T09:35:02.627Z,27
2019-03-13T09:35:53.523Z,26.9
2019-03-13T09:36:42.788Z,26.8
2019-03-13T09:37:33.026Z,26.7
2019-03-13T09:38:22.913Z,26.6
2019-03-13T09:39:13.300Z,26.4
2019-03-13T09:40:02.799Z,26.4
2019-03-13T09:40:53.595Z,26.3
2019-03-13T09:41:43.485Z,26.1
2019-03-13T09:42:32.742Z,26.1
2019-03-13T09:43:23.353Z,25.9
2019-03-13T09:44:13.655Z,25.8
2019-03-13T09:45:04.157Z,25.7
2019-03-13T09:45:53.789Z,25.6
2019-03-13T09:46:43.254Z,25.5
2019-03-13T09:47:33.518Z,25.4
2019-03-13T09:48:22.837Z,25.4
2019-03-13T09:49:17.777Z,25.3
2019-03-13T09:50:04.217Z,25.2
2019-03-13T09:50:53.852Z,25.1
2019-03-13T09:51:43.522Z,25
2019-03-13T09:52:34.742Z,24.9
2019-03-13T09:53:24.166Z,24.8
2019-03-13T09:54:14.554Z,24.7
2019-03-13T09:55:08.021Z,24.6
2019-03-13T09:55:54.050Z,24.6
2019-03-13T09:56:44.194Z,24.4
2019-03-13T09:57:34.249Z,24.4
2019-03-13T09:58:24.501Z,24.3
2019-03-13T09:59:14.192Z,24.2
2019-03-13T10:00:04.939Z,24.1
2019-03-13T10:00:53.754Z,24
2019-03-13T10:01:45.061Z,23.9
2019-03-13T10:02:34.034Z,24.1
2019-03-13T10:03:24.338Z,24.4
2019-03-13T10:04:14.961Z,24.9
2019-03-13T10:06:41.609Z,25.7
2019-03-13T10:07:31.989Z,26.1
2019-03-13T10:08:22.033Z,26.4
2019-03-13T10:09:12.613Z,26.8
2019-03-13T10:10:02.928Z,27.1
2019-03-13T10:10:52.943Z,27.4
2019-03-13T10:11:42.688Z,27.4
2019-03-13T10:12:32.508Z,27.4
2019-03-13T10:13:22.362Z,27.3
2019-03-13T10:14:12.895Z,27.2
2019-03-13T10:15:03.518Z,27.1
2019-03-13T10:15:53.046Z,26.9
2019-03-13T10:16:43.082Z,26.8
2019-03-13T10:17:33.313Z,26.7
2019-03-13T10:18:22.903Z,26.6
2019-03-13T10:19:12.758Z,26.5
2019-03-13T10:20:03.353Z,26.4
2019-03-13T10:20:53.383Z,26.3
2019-03-13T10:21:43.130Z,26.2
2019-03-13T10:22:34.031Z,26.1
2019-03-13T10:23:21.958Z,26
2019-03-13T10:24:13.878Z,25.9
2019-03-13T10:25:03.610Z,25.8
2019-03-13T10:25:57.295Z,25.7
2019-03-13T10:26:44.347Z,25.6
2019-03-13T10:27:32.780Z,25.5
2019-03-13T10:28:24.460Z,25.4
2019-03-13T10:29:14.307Z,25.3
2019-03-13T10:30:03.932Z,25.3
2019-03-13T10:30:54.065Z,25.1
2019-03-13T10:31:58.901Z,25.1
2019-03-13T10:32:35.028Z,24.9
2019-03-13T10:33:24.570Z,24.9
2019-03-13T10:34:13.742Z,24.8
2019-03-13T10:35:04.988Z,24.7
2019-03-13T10:35:54.492Z,24.6
2019-03-13T10:36:44.757Z,24.5
2019-03-13T10:37:34.825Z,24.4
2019-03-13T10:38:25.274Z,24.3
2019-03-13T10:39:14.672Z,24.3
2019-03-13T10:40:05.370Z,24.1
2019-03-13T10:40:53.926Z,24.1
2019-03-13T10:41:45.131Z,23.9
2019-03-13T10:42:34.964Z,24.1
2019-03-13T10:43:25.269Z,24.4
2019-03-13T10:44:15.048Z,24.9
2019-03-13T10:45:05.369Z,25.1
2019-03-13T10:45:55.438Z,25.4
2019-03-13T10:46:45.331Z,25.8
2019-03-13T10:47:35.646Z,26.1
2019-03-13T10:48:25.646Z,26.4
2019-03-13T10:49:15.602Z,26.8
2019-03-13T10:50:05.796Z,27.1
2019-03-13T10:50:55.497Z,27.4
2019-03-13T10:51:45.646Z,27.4
2019-03-13T10:52:35.616Z,27.4
2019-03-13T10:53:26.281Z,27.3
2019-03-13T10:54:15.441Z,27.1
2019-03-13T10:55:06.194Z,27.1
2019-03-13T10:55:58.853Z,26.9
2019-03-13T10:56:45.475Z,26.8
2019-03-13T10:57:35.973Z,26.8
2019-03-13T10:58:26.305Z,26.6
2019-03-13T10:59:15.543Z,26.5
2019-03-13T11:00:06.813Z,26.4
2019-03-13T11:00:56.413Z,26.3
2019-03-13T11:01:45.718Z,26.2
2019-03-13T11:02:36.065Z,26.1
2019-03-13T11:03:26.732Z,26
2019-03-13T11:04:16.530Z,25.9
2019-03-13T11:05:06.190Z,25.8
2019-03-13T11:05:55.788Z,25.7
2019-03-13T11:07:00.015Z,25.6
2019-03-13T11:07:38.096Z,25.5
2019-03-13T11:08:26.580Z,25.4
2019-03-13T11:09:17.633Z,25.3
2019-03-13T11:10:07.073Z,25.3
2019-03-13T11:10:56.188Z,25.1
2019-03-13T11:11:46.165Z,25.1
2019-03-13T11:12:36.779Z,25
2019-03-13T11:13:27.435Z,24.9
2019-03-13T11:14:24.857Z,24.8
2019-03-13T11:15:07.907Z,24.7
2019-03-13T11:15:57.555Z,24.6
2019-03-13T11:16:47.502Z,24.5
2019-03-13T11:17:37.439Z,24.4
2019-03-13T11:18:26.782Z,24.4
2019-03-13T11:19:16.722Z,24.3
2019-03-13T11:20:07.872Z,24.2